createdAt,value
2024-04-04T00:00:15.543Z,12.40
2024-04-04T00:03:02.684Z,9.80
2024-04-04T00:05:30.617Z,8.10
2024-04-04T00:07:57.790Z,11.30
2024-04-04T00:10:25.710Z,13.00
2024-04-04T00:12:54.126Z,16.40
2024-04-04T00:15:22.248Z,14.00
2024-04-04T00:17:49.402Z,11.90
2024-04-04T00:20:17.128Z,7.30
2024-04-04T00:22:45.459Z,8.30
2024-04-04T00:25:14.618Z,8.20
2024-04-04T00:27:41.794Z,7.50
2024-04-04T00:30:10.198Z,7.90
2024-04-04T00:32:37.412Z,6.90
2024-04-04T00:35:04.972Z,7.40
2024-04-04T00:37:32.165Z,7.90
2024-04-04T00:39:59.356Z,8.50
2024-04-04T00:42:26.654Z,7.90
2024-04-04T00:44:53.849Z,7.80
2024-04-04T00:47:21.324Z,10.80
2024-04-04T00:49:48.880Z,8.70
2024-04-04T00:52:16.384Z,7.90
2024-04-04T00:54:43.836Z,10.00
2024-04-04T00:57:11.031Z,7.90
2024-04-04T00:59:39.507Z,9.70
2024-04-04T01:02:06.980Z,7.70
2024-04-04T01:04:34.227Z,6.80
2024-04-04T01:07:01.634Z,9.20
2024-04-04T01:09:28.846Z,9.10
2024-04-04T01:11:55.984Z,7.20
2024-04-04T01:14:23.297Z,9.50
2024-04-04T01:16:50.475Z,7.80
2024-04-04T01:19:17.778Z,8.60
2024-04-04T01:21:45.246Z,6.90
2024-04-04T01:24:12.441Z,9.30
2024-04-04T01:26:39.588Z,8.20
2024-04-04T01:29:06.985Z,8.70
2024-04-04T01:31:34.209Z,8.30
2024-04-04T01:34:01.568Z,6.90
2024-04-04T01:36:28.769Z,6.60
2024-04-04T01:38:57.716Z,7.60
2024-04-04T01:41:24.961Z,9.80
2024-04-04T01:43:52.197Z,9.60
2024-04-04T01:46:19.422Z,8.90
2024-04-04T01:48:46.600Z,10.10
2024-04-04T01:51:15.240Z,8.90
2024-04-04T01:53:42.442Z,7.00
2024-04-04T01:56:09.596Z,8.50
2024-04-04T01:58:36.757Z,9.60
2024-04-04T02:01:04.218Z,7.20
2024-04-04T02:03:31.402Z,7.90
2024-04-04T02:05:58.582Z,6.60
2024-04-04T02:08:25.790Z,8.00
2024-04-04T02:10:53.114Z,10.50
2024-04-04T02:13:20.564Z,10.30
2024-04-04T02:15:48.228Z,9.50
2024-04-04T02:18:16.499Z,6.50
2024-04-04T02:20:47.012Z,9.10
2024-04-04T02:23:14.313Z,9.50
2024-04-04T02:25:41.482Z,7.60
2024-04-04T02:28:08.637Z,6.70
2024-04-04T02:30:35.912Z,9.40
2024-04-04T02:33:03.383Z,8.80
2024-04-04T02:35:30.621Z,8.00
2024-04-04T02:37:58.326Z,10.30
2024-04-04T02:40:25.481Z,9.10
2024-04-04T02:42:53.515Z,11.50
2024-04-04T02:45:23.011Z,9.20
2024-04-04T02:47:50.213Z,7.40
2024-04-04T02:50:17.834Z,7.80
2024-04-04T02:52:46.224Z,10.20
2024-04-04T02:55:13.565Z,8.60
2024-04-04T02:57:41.019Z,9.90
2024-04-04T03:00:11.926Z,8.40
2024-04-04T03:02:39.100Z,7.80
2024-04-04T03:05:06.963Z,9.60
2024-04-04T03:07:34.123Z,12.00
2024-04-04T03:10:02.005Z,9.10
2024-04-04T03:12:31.327Z,14.40
2024-04-04T03:14:58.977Z,10.30
2024-04-04T03:17:28.301Z,7.70
2024-04-04T03:19:55.517Z,6.60
2024-04-04T03:22:22.692Z,8.70
2024-04-04T03:24:49.903Z,9.80
2024-04-04T03:27:17.134Z,7.40
2024-04-04T03:29:44.326Z,8.60
2024-04-04T03:32:11.527Z,9.90
2024-04-04T03:34:38.761Z,8.20
2024-04-04T03:37:05.968Z,7.30
2024-04-04T03:39:33.110Z,7.00
2024-04-04T03:42:00.376Z,6.90
2024-04-04T03:44:27.555Z,8.10
2024-04-04T03:46:54.794Z,7.10
2024-04-04T03:49:21.954Z,8.40
2024-04-04T03:51:49.300Z,9.90
2024-04-04T03:54:17.405Z,11.00
2024-04-04T03:56:52.552Z,6.50
2024-04-04T03:59:24.510Z,8.40
2024-04-04T04:01:52.771Z,8.10
2024-04-04T04:04:20.242Z,8.10
2024-04-04T04:06:47.379Z,8.60
2024-04-04T04:09:14.544Z,7.70
2024-04-04T04:11:41.706Z,6.40
2024-04-04T04:14:09.306Z,8.20
2024-04-04T04:16:36.881Z,7.90
2024-04-04T04:19:04.133Z,7.30
2024-04-04T04:21:31.449Z,7.50
2024-04-04T04:24:01.115Z,7.10
2024-04-04T04:26:29.200Z,7.70
2024-04-04T04:28:56.458Z,7.60
2024-04-04T04:31:29.016Z,8.10
2024-04-04T04:34:01.324Z,8.50
2024-04-04T04:36:32.266Z,7.80
2024-04-04T04:38:59.555Z,7.70
2024-04-04T04:41:26.850Z,8.30
2024-04-04T04:43:54.057Z,8.70
2024-04-04T04:46:21.535Z,9.60
2024-04-04T04:48:48.723Z,7.30
2024-04-04T04:51:15.910Z,7.90
2024-04-04T04:53:43.149Z,7.40
2024-04-04T04:56:11.510Z,8.90
2024-04-04T04:58:38.720Z,8.30
2024-04-04T05:01:06.371Z,9.60
2024-04-04T05:03:33.513Z,8.90
2024-04-04T05:06:01.381Z,8.20
2024-04-04T05:08:28.569Z,16.20
2024-04-04T05:10:55.748Z,9.40
2024-04-04T05:13:22.892Z,17.20
2024-04-04T05:15:54.524Z,15.40
2024-04-04T05:18:23.120Z,29.30
2024-04-04T05:20:58.614Z,55.90
2024-04-04T05:23:26.107Z,15.00
2024-04-04T05:25:53.802Z,10.10
2024-04-04T05:28:26.721Z,8.50
2024-04-04T05:30:54.927Z,8.50
2024-04-04T05:33:22.217Z,9.70
2024-04-04T05:35:49.478Z,9.70
2024-04-04T05:38:16.938Z,8.10
2024-04-04T05:40:44.245Z,7.80
2024-04-04T05:43:12.038Z,8.20
2024-04-04T05:45:39.420Z,9.90
2024-04-04T05:48:07.135Z,8.70
2024-04-04T05:50:37.306Z,10.20
2024-04-04T05:53:04.697Z,9.90
2024-04-04T05:55:33.312Z,8.20
2024-04-04T05:58:01.846Z,8.20
2024-04-04T06:00:29.280Z,9.20
2024-04-04T06:03:01.335Z,9.60
2024-04-04T06:05:29.039Z,8.50
2024-04-04T06:07:57.846Z,9.00
2024-04-04T06:10:25.156Z,8.30
2024-04-04T06:12:52.342Z,8.00
2024-04-04T06:15:19.535Z,12.70
2024-04-04T06:17:46.801Z,16.00
2024-04-04T06:20:14.898Z,19.50
2024-04-04T06:22:42.104Z,15.10
2024-04-04T06:25:09.422Z,19.30
2024-04-04T06:27:36.705Z,12.70
2024-04-04T06:30:04.570Z,13.30
2024-04-04T06:32:31.948Z,13.50
2024-04-04T06:34:59.364Z,12.00
2024-04-04T06:37:30.169Z,8.50
2024-04-04T06:39:57.475Z,19.10
2024-04-04T06:42:24.818Z,19.20
2024-04-04T06:44:52.901Z,12.60
2024-04-04T06:47:20.185Z,17.00
2024-04-04T06:49:47.525Z,15.90
2024-04-04T06:52:14.871Z,10.90
2024-04-04T06:54:42.183Z,8.70
2024-04-04T06:57:11.616Z,9.30
2024-04-04T06:59:40.403Z,10.20
2024-04-04T07:02:08.080Z,12.00
2024-04-04T07:04:35.332Z,9.30
2024-04-04T07:07:02.559Z,10.80
2024-04-04T07:09:29.705Z,8.30
2024-04-04T07:11:56.971Z,8.90
2024-04-04T07:14:24.421Z,9.30
2024-04-04T07:16:53.346Z,12.90
2024-04-04T07:19:20.615Z,9.60
2024-04-04T07:21:50.042Z,10.50
2024-04-04T07:24:17.222Z,10.80
2024-04-04T07:26:49.269Z,21.00
2024-04-04T07:29:16.548Z,8.40
2024-04-04T07:31:43.929Z,10.00
2024-04-04T07:34:14.958Z,8.90
2024-04-04T07:36:42.947Z,10.60
2024-04-04T07:39:10.360Z,11.70
2024-04-04T07:41:38.027Z,12.30
2024-04-04T07:44:05.271Z,11.60
2024-04-04T07:46:32.493Z,12.80
2024-04-04T07:49:00.255Z,18.30
2024-04-04T07:51:27.897Z,28.20
2024-04-04T07:53:57.878Z,21.70
2024-04-04T07:56:25.048Z,21.80
2024-04-04T07:58:52.301Z,21.80
2024-04-04T08:01:22.019Z,14.60
2024-04-04T08:03:50.736Z,17.30
2024-04-04T08:06:18.121Z,21.50
2024-04-04T08:08:45.348Z,13.30
2024-04-04T08:11:16.981Z,17.30
2024-04-04T08:13:44.522Z,13.90
2024-04-04T08:16:11.770Z,15.40
2024-04-04T08:18:39.110Z,19.00
2024-04-04T08:21:06.605Z,13.80
2024-04-04T08:23:34.657Z,11.30
2024-04-04T08:26:01.870Z,17.80
2024-04-04T08:28:30.115Z,14.50
2024-04-04T08:30:58.868Z,12.70
2024-04-04T08:33:27.070Z,12.80
2024-04-04T08:35:55.279Z,11.00
2024-04-04T08:38:22.843Z,8.80
2024-04-04T08:40:50.441Z,9.80
2024-04-04T08:43:17.804Z,11.00
2024-04-04T08:45:49.762Z,11.40
2024-04-04T08:48:19.237Z,11.30
2024-04-04T08:50:51.015Z,15.40
2024-04-04T08:53:23.304Z,12.70
2024-04-04T08:55:52.201Z,11.70
2024-04-04T08:58:19.538Z,14.50
2024-04-04T09:00:47.197Z,13.70
2024-04-04T09:03:16.757Z,10.90
2024-04-04T09:05:49.694Z,18.00
2024-04-04T09:08:17.580Z,17.50
2024-04-04T09:10:53.768Z,12.40
2024-04-04T09:13:26.207Z,12.00
2024-04-04T09:16:00.762Z,9.60
2024-04-04T09:18:28.584Z,10.60
2024-04-04T09:21:00.318Z,12.70
2024-04-04T09:23:30.853Z,15.40
2024-04-04T09:25:59.680Z,13.30
2024-04-04T09:28:29.180Z,17.00
2024-04-04T09:31:00.649Z,20.50
2024-04-04T09:33:30.013Z,13.10
2024-04-04T09:35:59.313Z,14.80
2024-04-04T09:38:28.018Z,12.80
2024-04-04T09:40:56.731Z,11.60
2024-04-04T09:43:27.100Z,14.50
2024-04-04T09:45:57.297Z,14.80
2024-04-04T09:48:32.630Z,13.80
2024-04-04T09:51:07.268Z,13.10
2024-04-04T09:53:37.792Z,12.20
2024-04-04T09:56:06.438Z,14.30
2024-04-04T09:58:34.796Z,14.60
2024-04-04T10:01:21.935Z,14.90
2024-04-04T10:03:53.194Z,16.80
2024-04-04T10:06:37.391Z,22.30
2024-04-04T10:09:22.288Z,36.20
2024-04-04T10:11:50.970Z,15.40
2024-04-04T10:14:22.774Z,15.40
2024-04-04T10:16:54.232Z,15.40
2024-04-04T10:19:24.660Z,23.10
2024-04-04T10:21:51.924Z,16.70
2024-04-04T10:24:24.357Z,17.50
2024-04-04T10:26:53.378Z,17.40
2024-04-04T10:29:30.636Z,14.00
2024-04-04T10:32:04.991Z,16.90
2024-04-04T10:34:34.361Z,16.10
2024-04-04T10:37:01.990Z,16.40
2024-04-04T10:39:32.498Z,14.90
2024-04-04T10:42:00.810Z,17.40
2024-04-04T10:44:28.620Z,16.40
2024-04-04T10:46:57.347Z,18.40
2024-04-04T10:49:29.176Z,18.00
2024-04-04T10:51:59.518Z,18.90
2024-04-04T10:54:28.791Z,21.40
2024-04-04T10:56:57.651Z,23.60
2024-04-04T10:59:25.785Z,24.50
2024-04-04T11:01:56.123Z,20.40
2024-04-04T11:04:25.306Z,21.10
2024-04-04T11:06:53.001Z,19.40
2024-04-04T11:09:23.178Z,20.90
2024-04-04T11:11:52.193Z,22.00
2024-04-04T11:14:19.872Z,20.30
2024-04-04T11:16:47.437Z,20.40
2024-04-04T11:19:14.990Z,23.10
2024-04-04T11:21:42.244Z,21.70
2024-04-04T11:24:09.656Z,23.60
2024-04-04T11:26:36.794Z,22.50
2024-04-04T11:29:04.320Z,21.90
2024-04-04T11:31:31.557Z,21.60
2024-04-04T11:33:59.281Z,21.00
2024-04-04T11:36:26.549Z,30.70
2024-04-04T11:38:53.750Z,27.20
2024-04-04T11:41:21.166Z,23.50
2024-04-04T11:43:48.383Z,25.50
2024-04-04T11:46:16.496Z,23.90
2024-04-04T11:48:44.246Z,22.70
2024-04-04T11:51:12.225Z,24.50
2024-04-04T11:53:39.455Z,23.00
2024-04-04T11:56:07.656Z,25.50
2024-04-04T11:58:36.841Z,23.60
2024-04-04T12:01:04.322Z,24.60
2024-04-04T12:03:31.622Z,22.30
2024-04-04T12:05:59.646Z,23.50
2024-04-04T12:08:29.987Z,28.20
2024-04-04T12:11:01.474Z,25.90
2024-04-04T12:13:28.696Z,26.70
2024-04-04T12:15:58.846Z,25.70
2024-04-04T12:18:41.993Z,27.90
2024-04-04T12:21:15.377Z,25.00
2024-04-04T12:23:47.176Z,20.40
2024-04-04T12:26:17.764Z,26.40
2024-04-04T12:28:45.004Z,41.30
2024-04-04T12:31:13.602Z,28.30
2024-04-04T12:33:40.828Z,24.70
2024-04-04T12:36:08.092Z,27.10
2024-04-04T12:38:35.316Z,30.30
2024-04-04T12:41:03.415Z,24.90
2024-04-04T12:43:30.612Z,23.20
2024-04-04T12:46:05.258Z,25.50
2024-04-04T12:48:33.417Z,23.70
2024-04-04T12:51:01.415Z,25.80
2024-04-04T12:53:28.662Z,27.70
2024-04-04T12:55:56.412Z,27.30
2024-04-04T12:58:23.704Z,25.50
2024-04-04T13:00:59.258Z,25.30
2024-04-04T13:03:30.902Z,22.10
2024-04-04T13:05:58.769Z,25.10
2024-04-04T13:08:26.152Z,27.20
2024-04-04T13:10:53.310Z,27.10
2024-04-04T13:13:21.264Z,22.80
2024-04-04T13:15:48.709Z,22.10
2024-04-04T13:18:15.888Z,21.70
2024-04-04T13:20:43.098Z,22.70
2024-04-04T13:23:10.282Z,17.80
2024-04-04T13:25:37.588Z,32.60
2024-04-04T13:28:06.274Z,22.10
2024-04-04T13:30:33.574Z,17.10
2024-04-04T13:33:00.904Z,19.30
2024-04-04T13:35:28.355Z,17.20
2024-04-04T13:37:55.546Z,15.10
2024-04-04T13:40:22.805Z,16.40
2024-04-04T13:42:50.146Z,14.70
2024-04-04T13:45:17.434Z,16.10
2024-04-04T13:47:44.755Z,16.80
2024-04-04T13:50:12.067Z,16.10
2024-04-04T13:52:39.247Z,15.80
2024-04-04T13:55:07.116Z,15.20
2024-04-04T13:57:34.988Z,21.10
2024-04-04T14:00:05.280Z,18.30
2024-04-04T14:02:32.838Z,16.50
2024-04-04T14:05:00.171Z,16.40
2024-04-04T14:07:27.960Z,18.80
2024-04-04T14:09:56.523Z,18.10
2024-04-04T14:12:24.713Z,22.70
2024-04-04T14:14:52.250Z,25.20
2024-04-04T14:17:19.417Z,22.70
2024-04-04T14:19:46.618Z,19.70
2024-04-04T14:22:13.963Z,17.40
2024-04-04T14:24:41.362Z,31.10
2024-04-04T14:27:08.586Z,19.10
2024-04-04T14:29:36.149Z,19.00
2024-04-04T14:32:03.816Z,21.80
2024-04-04T14:34:31.031Z,21.10
2024-04-04T14:36:59.257Z,16.70
2024-04-04T14:39:28.978Z,18.30
2024-04-04T14:41:56.841Z,26.40
2024-04-04T14:44:24.083Z,44.30
2024-04-04T14:46:51.429Z,32.10
2024-04-04T14:49:19.704Z,25.90
2024-04-04T14:51:51.574Z,19.40
2024-04-04T14:54:21.268Z,20.60
2024-04-04T14:56:48.770Z,15.90
2024-04-04T14:59:15.987Z,20.70
2024-04-04T15:01:43.290Z,17.50
2024-04-04T15:04:10.528Z,16.70
2024-04-04T15:06:37.789Z,14.40
2024-04-04T15:09:06.490Z,14.40
2024-04-04T15:11:34.523Z,16.20
2024-04-04T15:14:02.849Z,17.70
2024-04-04T15:16:30.065Z,17.40
2024-04-04T15:18:57.297Z,34.20
2024-04-04T15:21:24.650Z,17.80
2024-04-04T15:23:51.840Z,16.90
2024-04-04T15:26:19.034Z,19.60
2024-04-04T15:28:46.270Z,18.70
2024-04-04T15:31:14.127Z,19.10
2024-04-04T15:33:41.280Z,17.40
2024-04-04T15:36:08.532Z,14.50
2024-04-04T15:38:35.710Z,16.30
2024-04-04T15:41:03.021Z,15.30
2024-04-04T15:43:30.212Z,15.30
2024-04-04T15:45:57.390Z,17.60
2024-04-04T15:48:24.873Z,17.00
2024-04-04T15:50:52.114Z,19.40
2024-04-04T15:53:19.726Z,20.30
2024-04-04T15:55:47.819Z,28.30
2024-04-04T15:58:15.209Z,33.60
2024-04-04T16:00:42.857Z,25.30
2024-04-04T16:03:10.053Z,26.50
2024-04-04T16:05:38.948Z,30.50
2024-04-04T16:08:06.882Z,20.50
2024-04-04T16:10:34.091Z,20.30
2024-04-04T16:13:01.932Z,18.40
2024-04-04T16:15:29.587Z,23.10
2024-04-04T16:17:56.756Z,27.30
2024-04-04T16:20:23.958Z,27.10
2024-04-04T16:22:51.087Z,48.70
2024-04-04T16:25:18.703Z,29.80
2024-04-04T16:27:45.932Z,29.30
2024-04-04T16:30:13.115Z,79.90
2024-04-04T16:32:40.394Z,27.60
2024-04-04T16:35:07.655Z,26.90
2024-04-04T16:37:35.365Z,40.00
2024-04-04T16:40:02.611Z,28.70
2024-04-04T16:42:29.859Z,26.70
2024-04-04T16:44:57.047Z,22.40
2024-04-04T16:47:24.406Z,21.00
2024-04-04T16:49:51.589Z,24.30
2024-04-04T16:52:18.788Z,24.50
2024-04-04T16:54:46.050Z,38.50
2024-04-04T16:57:13.236Z,32.20
2024-04-04T16:59:42.430Z,28.10
2024-04-04T17:02:09.678Z,23.40
2024-04-04T17:04:36.846Z,24.80
2024-04-04T17:07:04.882Z,23.60
2024-04-04T17:09:32.158Z,36.40
2024-04-04T17:11:59.308Z,30.50
2024-04-04T17:14:27.360Z,23.70
2024-04-04T17:16:54.569Z,27.50
2024-04-04T17:19:22.213Z,26.10
2024-04-04T17:21:49.492Z,27.00
2024-04-04T17:24:16.686Z,28.00
2024-04-04T17:26:46.292Z,32.20
2024-04-04T17:29:13.497Z,24.00
2024-04-04T17:31:42.215Z,26.20
2024-04-04T17:34:09.575Z,32.10
2024-04-04T17:36:39.271Z,27.70
2024-04-04T17:39:07.649Z,32.00
2024-04-04T17:41:34.903Z,24.30
2024-04-04T17:44:04.107Z,23.40
2024-04-04T17:46:31.667Z,23.40
2024-04-04T17:49:01.271Z,24.10
2024-04-04T17:51:28.482Z,25.10
2024-04-04T17:53:55.650Z,39.90
2024-04-04T17:56:22.822Z,55.10
2024-04-04T17:58:50.274Z,44.10
2024-04-04T18:01:17.833Z,31.70
2024-04-04T18:03:45.579Z,24.10
2024-04-04T18:06:12.812Z,36.30
2024-04-04T18:08:40.236Z,23.80
2024-04-04T18:11:07.480Z,21.70
2024-04-04T18:13:37.152Z,26.30
2024-04-04T18:16:04.570Z,30.60
2024-04-04T18:18:32.227Z,28.80
2024-04-04T18:20:59.500Z,30.20
2024-04-04T18:23:26.708Z,44.30
2024-04-04T18:25:53.880Z,24.80
2024-04-04T18:28:21.055Z,22.20
2024-04-04T18:30:50.877Z,25.30
2024-04-04T18:33:18.091Z,31.30
2024-04-04T18:35:45.300Z,42.20
2024-04-04T18:38:12.542Z,39.50
2024-04-04T18:40:39.800Z,44.80
2024-04-04T18:43:06.984Z,32.90
2024-04-04T18:45:34.819Z,27.10
2024-04-04T18:48:02.080Z,32.10
2024-04-04T18:50:30.682Z,24.80
2024-04-04T18:52:58.090Z,23.50
2024-04-04T18:55:25.529Z,38.60
2024-04-04T18:57:52.767Z,26.50
2024-04-04T19:00:20.275Z,26.30
2024-04-04T19:02:47.484Z,24.40
2024-04-04T19:05:14.884Z,22.60
2024-04-04T19:07:42.205Z,22.30
2024-04-04T19:10:09.475Z,21.20
2024-04-04T19:12:36.771Z,22.50
2024-04-04T19:15:06.834Z,28.30
2024-04-04T19:17:34.079Z,28.20
2024-04-04T19:20:05.633Z,24.90
2024-04-04T19:22:32.833Z,27.30
2024-04-04T19:24:59.986Z,29.90
2024-04-04T19:27:27.298Z,27.90
2024-04-04T19:29:54.930Z,23.80
2024-04-04T19:32:22.106Z,23.70
2024-04-04T19:34:49.273Z,24.20
2024-04-04T19:37:16.538Z,22.70
2024-04-04T19:39:43.761Z,23.80
2024-04-04T19:42:11.244Z,22.20
2024-04-04T19:44:38.425Z,22.40
2024-04-04T19:47:05.682Z,23.20
2024-04-04T19:49:33.527Z,23.70
2024-04-04T19:52:01.122Z,24.40
2024-04-04T19:54:28.414Z,23.00
2024-04-04T19:56:55.636Z,22.00
2024-04-04T19:59:24.390Z,21.00
2024-04-04T20:01:53.289Z,26.30
2024-04-04T20:04:20.476Z,20.80
2024-04-04T20:06:47.640Z,20.30
2024-04-04T20:09:14.814Z,20.40
2024-04-04T20:11:41.991Z,22.70
2024-04-04T20:14:09.143Z,22.30
2024-04-04T20:16:37.618Z,21.40
2024-04-04T20:19:04.863Z,19.70
2024-04-04T20:21:32.052Z,19.40
2024-04-04T20:23:59.217Z,18.60
2024-04-04T20:26:26.390Z,20.30
2024-04-04T20:28:55.107Z,21.00
2024-04-04T20:31:22.369Z,19.70
2024-04-04T20:33:50.535Z,19.40
2024-04-04T20:36:17.764Z,21.30
2024-04-04T20:38:44.942Z,22.10
2024-04-04T20:41:12.200Z,21.50
2024-04-04T20:43:39.441Z,18.70
2024-04-04T20:46:06.697Z,18.90
2024-04-04T20:48:34.188Z,21.60
2024-04-04T20:51:01.423Z,17.40
2024-04-04T20:53:28.766Z,17.50
2024-04-04T20:55:56.485Z,18.90
2024-04-04T20:58:24.697Z,18.20
2024-04-04T21:00:52.536Z,19.20
2024-04-04T21:03:19.748Z,19.90
2024-04-04T21:05:46.970Z,19.00
2024-04-04T21:08:14.520Z,19.10
2024-04-04T21:10:41.722Z,18.90
2024-04-04T21:13:08.936Z,25.30
2024-04-04T21:15:36.078Z,25.20
2024-04-04T21:18:10.649Z,23.60
2024-04-04T21:20:39.361Z,25.60
2024-04-04T21:23:06.555Z,22.60
2024-04-04T21:25:34.945Z,26.20
2024-04-04T21:28:02.526Z,24.20
2024-04-04T21:30:31.034Z,17.70
2024-04-04T21:32:58.308Z,18.90
2024-04-04T21:35:25.524Z,19.90
2024-04-04T21:37:52.686Z,16.60
2024-04-04T21:40:19.821Z,21.00
2024-04-04T21:42:47.007Z,19.50
2024-04-04T21:45:14.251Z,19.50
2024-04-04T21:47:41.572Z,15.60
2024-04-04T21:50:09.656Z,15.90
2024-04-04T21:52:36.843Z,16.50
2024-04-04T21:55:04.223Z,17.60
2024-04-04T21:57:33.917Z,19.50
2024-04-04T22:00:01.120Z,14.10
2024-04-04T22:02:28.361Z,16.80
2024-04-04T22:04:56.281Z,13.70
2024-04-04T22:07:23.457Z,14.00
2024-04-04T22:09:50.682Z,15.30
2024-04-04T22:12:17.850Z,14.50
2024-04-04T22:14:44.994Z,15.00
2024-04-04T22:17:13.724Z,16.40
2024-04-04T22:19:40.922Z,20.70
2024-04-04T22:22:08.115Z,13.50
2024-04-04T22:24:35.235Z,14.20
2024-04-04T22:27:02.501Z,16.00
2024-04-04T22:29:30.569Z,13.80
2024-04-04T22:31:57.725Z,17.50
2024-04-04T22:34:24.873Z,14.80
2024-04-04T22:36:53.213Z,13.80
2024-04-04T22:39:21.829Z,13.50
2024-04-04T22:41:48.954Z,13.20
2024-04-04T22:44:16.146Z,14.90
2024-04-04T22:46:43.892Z,13.20
2024-04-04T22:49:11.665Z,12.80
2024-04-04T22:51:38.862Z,12.50
2024-04-04T22:54:06.042Z,13.40
2024-04-04T22:56:33.198Z,14.60
2024-04-04T22:59:00.374Z,13.10
2024-04-04T23:01:27.537Z,15.20
2024-04-04T23:03:54.735Z,12.50
2024-04-04T23:06:22.068Z,14.10
2024-04-04T23:08:49.240Z,17.50
2024-04-04T23:11:16.418Z,15.00
2024-04-04T23:13:43.579Z,15.50
2024-04-04T23:16:10.780Z,13.80
2024-04-04T23:18:39.448Z,14.10
2024-04-04T23:21:06.590Z,12.60
2024-04-04T23:23:33.774Z,18.40
2024-04-04T23:26:00.918Z,15.80
2024-04-04T23:28:28.987Z,14.10
2024-04-04T23:30:56.653Z,11.90
2024-04-04T23:33:23.850Z,13.60
2024-04-04T23:35:53.217Z,14.50
2024-04-04T23:38:20.547Z,12.20
2024-04-04T23:40:48.018Z,14.90
2024-04-04T23:43:15.238Z,15.70
2024-04-04T23:45:42.422Z,15.70
2024-04-04T23:48:09.952Z,14.30
2024-04-04T23:50:37.066Z,12.90
2024-04-04T23:53:04.446Z,13.50
2024-04-04T23:55:31.718Z,12.70
2024-04-04T23:57:59.276Z,13.90
